Time;durP1;ratioP1;P1;durP2;ratioP2;P2;SDS_P1;SDS_P2;PMS_P1;PMS_P2;Temp;Humidity;BMP_temperature;BMP_pressure;BME280_temperature;BME280_humidity;BME280_pressure;Samples;Min_cycle;Max_cycle;Signal;HPM_P1;HPM_P2
2022/10/04 00:00:45;;;;;;;0.20;0.20;;;;;;;14.59;75.93;102352.97;2111694;28;20052;-68
2022/10/04 00:01:50;;;;;;;0.20;0.20;;;;;;;14.60;76.10;102357.31;2107402;28;20054;-68
2022/10/04 00:02:59;;;;;;;0.28;0.28;;;;;;;14.62;76.05;102352.31;2104036;28;20597;-68
2022/10/04 00:04:05;;;;;;;0.20;0.20;;;;;;;14.59;76.19;102351.06;2096976;28;20052;-69
2022/10/04 00:05:14;;;;;;;0.30;0.30;;;;;;;14.59;75.79;102353.78;2108838;28;20051;-69
2022/10/04 00:06:20;;;;;;;0.20;0.20;;;;;;;14.58;76.22;102354.91;2109796;28;20051;-68
2022/10/04 00:07:25;;;;;;;0.20;0.20;;;;;;;14.54;76.04;102347.75;2110533;28;20147;-68
2022/10/04 00:08:33;;;;;;;0.20;0.20;;;;;;;14.53;76.30;102348.88;2107655;28;20058;-69
2022/10/04 00:09:44;;;;;;;0.30;0.30;;;;;;;14.43;76.46;102343.84;2105296;28;20515;-68
2022/10/04 00:10:47;;;;;;;0.30;0.30;;;;;;;14.40;76.21;102356.16;2111457;28;20091;-67
2022/10/04 00:11:53;;;;;;;0.30;0.30;;;;;;;14.33;76.54;102342.31;2112177;28;20052;-69
2022/10/04 00:12:58;;;;;;;0.22;0.22;;;;;;;14.30;76.69;102345.66;2111107;28;20434;-68
2022/10/04 00:14:06;;;;;;;0.20;0.20;;;;;;;14.27;77.12;102346.31;2111645;28;20047;-69
2022/10/04 00:15:20;;;;;;;0.30;0.30;;;;;;;14.23;76.73;102344.56;2109572;28;20059;-69
2022/10/04 00:16:27;;;;;;;0.20;0.20;;;;;;;14.21;76.71;102346.78;2104749;28;20048;-68
2022/10/04 00:17:34;;;;;;;0.30;0.30;;;;;;;14.20;76.78;102343.28;2105378;28;20055;-68
2022/10/04 00:18:39;;;;;;;0.28;0.28;;;;;;;14.18;77.05;102342.00;2107484;28;20521;-68
2022/10/04 00:19:45;;;;;;;0.25;0.25;;;;;;;14.19;77.34;102346.34;2109218;28;20108;-68
2022/10/04 00:21:02;;;;;;;0.30;0.30;;;;;;;14.10;77.32;102343.66;2107016;28;20056;-69
2022/10/04 00:22:16;;;;;;;0.28;0.28;;;;;;;14.11;76.76;102344.47;2104545;28;20052;-68
2022/10/04 00:23:27;;;;;;;0.30;0.30;;;;;;;14.08;77.74;102336.97;2108672;28;20058;-68
2022/10/04 00:24:32;;;;;;;0.30;0.30;;;;;;;14.07;77.63;102335.38;2107115;28;20113;-67
2022/10/04 00:25:36;;;;;;;0.28;0.28;;;;;;;14.07;77.98;102338.09;2104817;28;20055;-69
2022/10/04 00:27:09;;;;;;;0.30;0.30;;;;;;;13.91;77.94;102332.41;2109925;28;20059;-69
2022/10/04 00:28:31;;;;;;;0.30;0.30;;;;;;;13.94;77.77;102333.69;2099567;28;20048;-69
2022/10/04 00:29:36;;;;;;;0.30;0.30;;;;;;;13.91;78.22;102328.88;2103009;28;20882;-69
2022/10/04 00:30:40;;;;;;;0.30;0.30;;;;;;;13.89;78.33;102323.78;2113346;28;20047;-69
2022/10/04 00:32:16;;;;;;;0.30;0.30;;;;;;;13.86;78.53;102329.09;2111029;28;20059;-68
2022/10/04 00:33:33;;;;;;;0.30;0.30;;;;;;;13.82;79.06;102333.56;2104831;28;20056;-68
2022/10/04 00:34:47;;;;;;;0.20;0.20;;;;;;;13.82;78.33;102325.41;2107874;28;20048;-69
2022/10/04 00:35:49;;;;;;;0.30;0.30;;;;;;;13.85;78.50;102332.91;2103869;28;20056;-68
2022/10/04 00:36:54;;;;;;;0.30;0.30;;;;;;;13.83;78.26;102325.09;2104158;28;20078;-68
2022/10/04 00:37:58;;;;;;;0.30;0.30;;;;;;;13.83;78.40;102324.28;2111936;28;20077;-67
2022/10/04 00:39:18;;;;;;;0.30;0.30;;;;;;;13.74;78.64;102326.25;2107902;28;20043;-69
2022/10/04 00:40:22;;;;;;;0.20;0.20;;;;;;;13.75;78.52;102320.50;2108300;28;20395;-67
2022/10/04 00:41:25;;;;;;;0.30;0.30;;;;;;;13.76;78.36;102322.09;2104872;28;20052;-68
2022/10/04 00:42:55;;;;;;;0.20;0.20;;;;;;;13.68;78.52;102316.69;2112368;28;20062;-67
2022/10/04 00:43:59;;;;;;;0.30;0.30;;;;;;;13.71;78.52;102310.63;2091535;28;20063;-68
2022/10/04 00:45:11;;;;;;;0.30;0.30;;;;;;;13.73;78.71;102313.81;2105065;28;20040;-68
2022/10/04 00:46:17;;;;;;;0.30;0.30;;;;;;;13.75;79.41;102312.34;2105708;28;20059;-67
2022/10/04 00:47:30;;;;;;;0.30;0.30;;;;;;;13.78;79.01;102316.34;2109930;28;20460;-68
2022/10/04 00:48:43;;;;;;;0.30;0.30;;;;;;;13.78;79.24;102316.34;2111436;28;20055;-69
2022/10/04 00:49:47;;;;;;;0.20;0.20;;;;;;;13.83;78.82;102319.66;2104732;28;20541;-68
2022/10/04 00:50:56;;;;;;;0.30;0.30;;;;;;;13.86;79.04;102313.59;2110472;28;20047;-68
2022/10/04 00:52:01;;;;;;;0.20;0.20;;;;;;;13.89;78.97;102312.16;2101304;28;20081;-68
2022/10/04 00:53:16;;;;;;;0.20;0.20;;;;;;;13.90;79.23;102311.03;2096604;28;20542;-68
2022/10/04 00:54:23;;;;;;;0.20;0.20;;;;;;;13.92;78.51;102306.84;2104667;28;20547;-69
2022/10/04 00:55:33;;;;;;;0.30;0.30;;;;;;;13.94;78.52;102299.16;2108359;28;20534;-68
2022/10/04 00:56:43;;;;;;;0.30;0.30;;;;;;;13.93;78.84;102310.34;2099539;28;20052;-68
2022/10/04 00:57:48;;;;;;;0.30;0.30;;;;;;;13.92;78.81;102300.63;2104290;28;20043;-68
2022/10/04 00:59:12;;;;;;;0.20;0.20;;;;;;;13.91;79.09;102309.88;2107553;28;20048;-68
2022/10/04 01:00:18;;;;;;;0.20;0.20;;;;;;;13.93;78.77;102313.06;2101649;28;20972;-68
2022/10/04 01:01:27;;;;;;;0.20;0.20;;;;;;;13.95;79.31;102308.94;2103836;28;20563;-68
2022/10/04 01:02:32;;;;;;;0.20;0.20;;;;;;;13.98;79.32;102316.41;2105148;28;20056;-68
2022/10/04 01:03:39;;;;;;;0.20;0.20;;;;;;;14.00;78.87;102314.16;2109937;28;20089;-68
2022/10/04 01:04:49;;;;;;;0.30;0.30;;;;;;;14.01;78.21;102309.53;2106807;28;20044;-68
2022/10/04 01:05:55;;;;;;;0.20;0.20;;;;;;;14.00;78.93;102307.94;2112435;28;20043;-68
2022/10/04 01:07:00;;;;;;;0.30;0.30;;;;;;;14.02;78.95;102316.53;2109398;28;20053;-68
2022/10/04 01:08:07;;;;;;;0.30;0.30;;;;;;;14.01;78.28;102301.38;2111491;28;20522;-68
2022/10/04 01:09:12;;;;;;;0.20;0.20;;;;;;;13.96;78.94;102299.66;2112852;28;20406;-68
2022/10/04 01:10:20;;;;;;;0.30;0.30;;;;;;;13.94;78.59;102303.81;2110168;28;20056;-68
2022/10/04 01:11:27;;;;;;;0.20;0.20;;;;;;;13.92;79.02;102295.97;2106526;28;20062;-68
2022/10/04 01:12:40;;;;;;;0.20;0.20;;;;;;;13.89;79.24;102298.56;2104599;28;20060;-69
2022/10/04 01:13:49;;;;;;;0.20;0.20;;;;;;;13.90;79.37;102295.53;2102643;28;20048;-69
2022/10/04 01:14:58;;;;;;;0.20;0.20;;;;;;;13.91;79.12;102297.13;2107239;28;20051;-69
2022/10/04 01:16:10;;;;;;;0.20;0.20;;;;;;;13.92;79.27;102295.97;2104546;28;20048;-68
2022/10/04 01:17:12;;;;;;;0.20;0.20;;;;;;;13.93;79.01;102294.88;2111301;28;20127;-68
2022/10/04 01:18:29;;;;;;;0.20;0.20;;;;;;;13.97;78.90;102295.03;2104851;28;20055;-69
2022/10/04 01:19:31;;;;;;;0.20;0.20;;;;;;;13.94;79.32;102293.75;2104895;28;20048;-69
2022/10/04 01:20:36;;;;;;;0.25;0.25;;;;;;;13.98;79.29;102289.25;2105954;28;20499;-69
2022/10/04 01:21:41;;;;;;;0.30;0.30;;;;;;;13.99;78.87;102290.03;2105051;28;20048;-69
2022/10/04 01:22:49;;;;;;;0.20;0.20;;;;;;;13.98;79.22;102283.03;2104541;28;20064;-67
2022/10/04 01:24:02;;;;;;;0.20;0.20;;;;;;;13.98;79.18;102289.25;2103826;28;20444;-67
2022/10/04 01:25:04;;;;;;;0.30;0.30;;;;;;;13.94;78.82;102284.81;2105388;28;20055;-69
2022/10/04 01:26:35;;;;;;;0.22;0.22;;;;;;;13.87;79.13;102281.81;2107024;28;20096;-69
2022/10/04 01:27:42;;;;;;;0.20;0.20;;;;;;;13.86;79.55;102280.22;2104710;28;20052;-69
2022/10/04 01:28:44;;;;;;;0.22;0.22;;;;;;;13.83;79.60;102286.28;2110693;28;20055;-69
2022/10/04 01:29:47;;;;;;;0.20;0.20;;;;;;;13.86;80.01;102280.22;2094555;28;20520;-68
2022/10/04 01:30:52;;;;;;;0.25;0.25;;;;;;;13.86;79.75;102272.84;2103107;28;20048;-68
2022/10/04 01:31:58;;;;;;;0.20;0.20;;;;;;;13.89;79.44;102271.44;2104638;28;20044;-68
2022/10/04 01:32:59;;;;;;;0.20;0.20;;;;;;;13.90;79.14;102270.28;2104889;28;20044;-68
2022/10/04 01:34:05;;;;;;;0.20;0.20;;;;;;;13.90;79.41;102270.28;2105605;28;20066;-69
2022/10/04 01:35:09;;;;;;;0.20;0.20;;;;;;;13.86;79.45;102274.81;2108318;28;20101;-68
2022/10/04 01:36:12;;;;;;;0.20;0.20;;;;;;;13.84;78.98;102266.19;2106114;28;20048;-68
2022/10/04 01:37:14;;;;;;;0.30;0.30;;;;;;;13.84;79.52;102272.41;2107367;28;20059;-68
2022/10/04 01:38:18;;;;;;;0.22;0.22;;;;;;;13.83;79.51;102261.84;2109743;28;20104;-69
2022/10/04 01:39:23;;;;;;;0.20;0.20;;;;;;;13.79;79.62;102263.66;2114810;28;20107;-69
2022/10/04 01:40:26;;;;;;;0.30;0.30;;;;;;;13.79;79.48;102263.66;2105855;28;20052;-68
2022/10/04 01:41:37;;;;;;;0.30;0.30;;;;;;;13.76;79.13;102254.25;2101520;28;20060;-69
2022/10/04 01:42:45;;;;;;;0.20;0.20;;;;;;;13.74;79.79;102255.69;2100399;28;20506;-69
2022/10/04 01:43:53;;;;;;;0.30;0.30;;;;;;;13.73;79.64;102257.59;2106524;28;20056;-69
2022/10/04 01:45:01;;;;;;;0.20;0.20;;;;;;;13.72;79.96;102256.00;2112815;28;20051;-68
2022/10/04 01:46:08;;;;;;;0.30;0.30;;;;;;;13.73;79.75;102254.88;2111737;28;20122;-69
2022/10/04 01:47:15;;;;;;;0.30;0.30;;;;;;;13.75;79.91;102251.88;2107675;28;20044;-68
2022/10/04 01:48:21;;;;;;;0.30;0.30;;;;;;;13.75;80.20;102243.72;2106076;28;20518;-68
2022/10/04 01:49:30;;;;;;;0.30;0.30;;;;;;;13.77;79.71;102246.88;2107074;28;20056;-69
2022/10/04 01:50:36;;;;;;;0.30;0.30;;;;;;;13.77;79.44;102247.69;2106248;28;20054;-68
2022/10/04 01:51:48;;;;;;;0.30;0.30;;;;;;;13.77;79.83;102246.88;2112193;28;20048;-69
2022/10/04 01:52:54;;;;;;;0.30;0.30;;;;;;;13.77;79.39;102244.16;2106007;28;20058;-69
2022/10/04 01:54:04;;;;;;;0.20;0.20;;;;;;;13.75;79.29;102249.16;2096541;28;20044;-69
2022/10/04 01:55:11;;;;;;;0.30;0.30;;;;;;;13.73;79.52;102243.25;2095094;28;20139;-69
2022/10/04 01:56:18;;;;;;;0.30;0.30;;;;;;;13.70;79.36;102244.66;2113364;28;20492;-68
2022/10/04 01:57:23;;;;;;;0.30;0.30;;;;;;;13.69;79.93;102234.16;2110952;28;20167;-69
2022/10/04 01:58:30;;;;;;;0.20;0.20;;;;;;;13.69;79.74;102242.28;2112126;28;20056;-69
2022/10/04 01:59:39;;;;;;;0.30;0.30;;;;;;;13.66;79.63;102237.50;2112136;28;20050;-69
2022/10/04 02:00:46;;;;;;;0.30;0.30;;;;;;;13.65;79.57;102231.31;2107853;28;20055;-68
2022/10/04 02:01:54;;;;;;;0.30;0.30;;;;;;;13.62;79.42;102231.16;2106284;28;20056;-68
2022/10/04 02:03:03;;;;;;;0.30;0.30;;;;;;;13.63;80.10;102230.03;2113244;28;20048;-68
2022/10/04 02:04:11;;;;;;;0.30;0.30;;;;;;;13.60;79.35;102230.69;2113905;28;20047;-67
2022/10/04 02:05:20;;;;;;;0.30;0.30;;;;;;;13.56;79.79;102224.34;2110028;28;20059;-68
2022/10/04 02:06:23;;;;;;;0.22;0.22;;;;;;;13.54;80.15;102227.38;2103860;28;20048;-68
2022/10/04 02:07:31;;;;;;;0.20;0.20;;;;;;;13.54;79.42;102224.66;2107845;28;20581;-69
2022/10/04 02:08:38;;;;;;;0.30;0.30;;;;;;;13.52;79.92;102232.31;2113680;28;20523;-68
2022/10/04 02:09:46;;;;;;;0.30;0.30;;;;;;;13.49;80.33;102228.31;2097769;28;20068;-68
2022/10/04 02:10:49;;;;;;;0.30;0.30;;;;;;;13.50;79.76;102229.13;2104936;28;20548;-69
2022/10/04 02:11:53;;;;;;;0.30;0.30;;;;;;;13.49;80.32;102231.03;2100668;28;20748;-69
2022/10/04 02:12:56;;;;;;;0.20;0.20;;;;;;;13.49;79.46;102222.91;2096639;28;20052;-69
2022/10/04 02:14:00;;;;;;;0.28;0.28;;;;;;;13.47;79.83;102219.75;2112207;28;20051;-69
2022/10/04 02:15:07;;;;;;;0.20;0.20;;;;;;;13.46;79.95;102218.13;2106003;28;20056;-69
2022/10/04 02:16:12;;;;;;;0.30;0.30;;;;;;;13.44;80.20;102220.41;2108944;28;20051;-69
2022/10/04 02:17:16;;;;;;;0.30;0.30;;;;;;;13.45;79.72;102224.69;2113380;28;20051;-68
2022/10/04 02:18:21;;;;;;;0.30;0.30;;;;;;;13.44;79.89;102223.09;2105951;28;20496;-69
2022/10/04 02:19:31;;;;;;;0.20;0.20;;;;;;;13.41;79.82;102217.53;2106577;28;20067;-69
2022/10/04 02:20:34;;;;;;;0.30;0.30;;;;;;;13.39;79.96;102228.72;2102763;28;20044;-69
2022/10/04 02:21:37;;;;;;;0.30;0.30;;;;;;;13.40;80.32;102229.47;2101102;28;20049;-68
2022/10/04 02:22:42;;;;;;;0.20;0.20;;;;;;;13.39;79.60;102227.91;2106040;28;20052;-68
2022/10/04 02:23:46;;;;;;;0.25;0.25;;;;;;;13.34;80.54;102223.47;2108956;28;20113;-69
2022/10/04 02:24:52;;;;;;;0.20;0.20;;;;;;;13.34;79.78;102220.75;2110391;28;20097;-69
2022/10/04 02:25:55;;;;;;;0.30;0.30;;;;;;;13.31;79.88;102215.97;2105518;28;20562;-69
2022/10/04 02:26:56;;;;;;;0.30;0.30;;;;;;;13.31;79.88;102220.59;2097901;28;20129;-69
2022/10/04 02:27:59;;;;;;;0.30;0.30;;;;;;;13.29;80.54;102206.56;2107033;28;20052;-69
2022/10/04 02:29:02;;;;;;;0.28;0.28;;;;;;;13.28;80.40;102207.69;2108847;28;20052;-68
2022/10/04 02:30:07;;;;;;;0.20;0.20;;;;;;;13.26;80.48;102207.22;2105798;28;20052;-67
2022/10/04 02:33:56;;;;;;;0.30;0.30;;;;;;;13.12;80.57;102199.28;2105686;28;20397;-69
2022/10/04 02:34:59;;;;;;;0.20;0.20;;;;;;;13.11;80.80;102211.25;2111387;28;20062;-69
2022/10/04 02:36:01;;;;;;;0.25;0.25;;;;;;;13.10;79.95;102204.22;2106048;28;20693;-69
2022/10/04 02:37:06;;;;;;;0.35;0.35;;;;;;;13.09;80.87;102208.06;2107188;28;20056;-71
2022/10/04 02:38:13;;;;;;;0.30;0.30;;;;;;;13.07;80.65;102199.47;2100524;28;20047;-71
2022/10/04 02:39:23;;;;;;;0.20;0.20;;;;;;;13.04;80.86;102202.03;2106090;28;20063;-71
2022/10/04 02:40:32;;;;;;;0.30;0.30;;;;;;;13.00;80.85;102196.44;2110090;28;20051;-70
2022/10/04 02:41:42;;;;;;;0.25;0.25;;;;;;;12.99;80.92;102192.13;2104150;28;20055;-68
2022/10/04 02:42:49;;;;;;;0.30;0.30;;;;;;;12.98;81.05;102189.72;2105016;28;20048;-68
2022/10/04 02:43:57;;;;;;;0.30;0.30;;;;;;;12.98;81.06;102178.88;2108524;28;20052;-68
2022/10/04 02:45:05;;;;;;;0.20;0.20;;;;;;;12.95;81.22;102174.91;2112562;28;20062;-68
2022/10/04 02:46:13;;;;;;;0.20;0.20;;;;;;;12.93;81.34;102174.44;2111544;28;20360;-68
2022/10/04 02:47:19;;;;;;;0.30;0.30;;;;;;;12.91;81.29;102175.88;2109143;28;20130;-68
2022/10/04 02:48:40;;;;;;;0.30;0.30;;;;;;;12.81;81.79;102171.59;2106192;28;20817;-67
2022/10/04 02:49:46;;;;;;;0.20;0.20;;;;;;;12.83;81.57;102166.66;2113147;28;20104;-68
2022/10/04 02:50:53;;;;;;;0.30;0.30;;;;;;;12.84;81.39;102168.25;2105716;27;20411;-68
2022/10/04 02:52:02;;;;;;;0.20;0.20;;;;;;;12.82;81.21;102170.50;2109123;28;20051;-68
2022/10/04 02:53:14;;;;;;;0.25;0.25;;;;;;;12.79;81.06;102168.44;2108723;27;20048;-68
2022/10/04 02:54:26;;;;;;;0.30;0.30;;;;;;;12.80;81.42;102171.91;2107617;28;20157;-68
2022/10/04 02:55:31;;;;;;;0.30;0.30;;;;;;;12.77;81.12;102162.53;2108609;28;20051;-68
2022/10/04 02:56:35;;;;;;;0.30;0.30;;;;;;;12.76;81.54;102160.94;2105406;28;20060;-68
2022/10/04 02:57:42;;;;;;;0.30;0.30;;;;;;;12.75;81.63;102163.97;2114291;28;20060;-68
2022/10/04 02:58:44;;;;;;;0.28;0.28;;;;;;;12.74;81.28;102156.94;2111337;28;20047;-68
2022/10/04 02:59:47;;;;;;;0.22;0.22;;;;;;;12.74;81.84;102157.75;2112657;28;20044;-68
2022/10/04 03:00:54;;;;;;;0.25;0.25;;;;;;;12.74;81.76;102152.34;2112212;28;20052;-69
2022/10/04 03:01:58;;;;;;;0.20;0.20;;;;;;;12.72;81.54;102153.75;2107585;28;20154;-69
2022/10/04 03:03:20;;;;;;;0.20;0.20;;;;;;;12.67;81.85;102168.28;2097338;28;20137;-69
2022/10/04 03:04:27;;;;;;;0.20;0.20;;;;;;;12.70;82.10;102161.44;2105102;28;20055;-68
2022/10/04 03:05:28;;;;;;;0.30;0.30;;;;;;;12.68;82.20;102164.47;2106266;28;20414;-68
2022/10/04 03:06:33;;;;;;;0.30;0.30;;;;;;;12.70;82.09;102164.91;2108700;28;20522;-68
2022/10/04 03:07:37;;;;;;;0.30;0.30;;;;;;;12.69;81.71;102160.63;2112737;28;20468;-68
2022/10/04 03:08:48;;;;;;;0.20;0.20;;;;;;;12.66;81.71;102161.28;2110912;28;20406;-68
2022/10/04 03:09:51;;;;;;;0.30;0.30;;;;;;;12.66;81.88;102160.47;2107114;28;20047;-68
2022/10/04 03:10:56;;;;;;;0.22;0.22;;;;;;;12.66;81.87;102160.47;2105278;28;20063;-69
2022/10/04 03:11:59;;;;;;;0.30;0.30;;;;;;;12.64;81.93;102152.66;2105306;28;20074;-68
2022/10/04 03:13:02;;;;;;;0.28;0.28;;;;;;;12.62;82.37;102154.88;2108574;28;20100;-68
2022/10/04 03:14:12;;;;;;;0.20;0.20;;;;;;;12.61;82.48;102153.31;2110290;28;20535;-69
2022/10/04 03:15:15;;;;;;;0.20;0.20;;;;;;;12.59;82.13;102160.94;2107139;28;20051;-69
2022/10/04 03:16:19;;;;;;;0.20;0.20;;;;;;;12.58;82.34;102162.09;2106292;28;20056;-69
2022/10/04 03:17:21;;;;;;;0.20;0.20;;;;;;;12.57;82.50;102157.00;2112461;28;20503;-69
2022/10/04 03:18:24;;;;;;;0.30;0.30;;;;;;;12.56;82.09;102148.06;2108479;28;20047;-69
2022/10/04 03:19:29;;;;;;;0.30;0.30;;;;;;;12.53;82.77;102151.41;2108644;28;20058;-69
2022/10/04 03:20:36;;;;;;;0.30;0.30;;;;;;;12.54;82.73;102152.22;2111385;28;20060;-69
2022/10/04 03:21:41;;;;;;;0.30;0.30;;;;;;;12.53;82.93;102150.59;2109447;28;20063;-69
2022/10/04 03:22:46;;;;;;;0.22;0.22;;;;;;;12.52;82.47;102157.94;2105635;28;20048;-69
2022/10/04 03:23:49;;;;;;;0.30;0.30;;;;;;;12.51;82.45;102152.84;2105587;28;20055;-69
2022/10/04 03:24:56;;;;;;;0.22;0.22;;;;;;;12.50;82.74;102152.06;2109755;28;20059;-69
2022/10/04 03:26:03;;;;;;;0.30;0.30;;;;;;;12.47;82.68;102155.41;2111709;28;20480;-69
2022/10/04 03:27:09;;;;;;;0.30;0.30;;;;;;;12.47;82.89;102152.69;2112168;28;20438;-69
2022/10/04 03:28:11;;;;;;;0.20;0.20;;;;;;;12.46;82.99;102156.53;2108088;28;20059;-69
2022/10/04 03:29:15;;;;;;;0.20;0.20;;;;;;;12.46;82.74;102150.31;2105594;28;20091;-69
2022/10/04 03:30:18;;;;;;;0.30;0.30;;;;;;;12.45;82.49;102154.94;2105327;28;20052;-69
2022/10/04 03:31:21;;;;;;;0.30;0.30;;;;;;;12.45;82.94;102160.34;2105315;28;20506;-68
2022/10/04 03:32:25;;;;;;;0.40;0.40;;;;;;;12.45;82.66;102163.06;2106417;28;20135;-69
2022/10/04 03:33:28;;;;;;;0.22;0.22;;;;;;;12.44;82.57;102164.19;2105554;28;20056;-68
2022/10/04 03:34:35;;;;;;;0.30;0.30;;;;;;;12.45;82.93;102160.34;2112360;28;20058;-69
2022/10/04 03:35:40;;;;;;;0.30;0.30;;;;;;;12.44;82.78;102157.94;2111882;28;20047;-69
2022/10/04 03:36:44;;;;;;;0.28;0.28;;;;;;;12.44;82.87;102161.47;2112428;28;20051;-69
2022/10/04 03:37:46;;;;;;;0.30;0.30;;;;;;;12.44;82.99;102166.09;2111322;28;20059;-69
2022/10/04 03:38:52;;;;;;;0.30;0.30;;;;;;;12.44;82.87;102157.94;2108534;28;20415;-69
2022/10/04 03:39:56;;;;;;;0.20;0.20;;;;;;;12.43;83.23;102157.16;2113590;28;20048;-69
2022/10/04 03:41:03;;;;;;;0.30;0.30;;;;;;;12.43;82.63;102162.56;2109345;28;20510;-69
2022/10/04 03:42:11;;;;;;;0.30;0.30;;;;;;;12.44;82.77;102157.94;2110450;28;20043;-69
2022/10/04 03:43:14;;;;;;;0.20;0.20;;;;;;;12.43;83.08;102162.56;2107999;28;20061;-69
2022/10/04 03:44:18;;;;;;;0.30;0.30;;;;;;;12.44;83.08;102161.47;2104478;28;20075;-69
2022/10/04 03:45:23;;;;;;;0.30;0.30;;;;;;;12.44;82.83;102157.94;2106703;28;20055;-69
2022/10/04 03:46:27;;;;;;;0.30;0.30;;;;;;;12.42;82.94;102152.84;2105543;28;20040;-69
2022/10/04 03:47:34;;;;;;;0.20;0.20;;;;;;;12.43;82.99;102159.84;2104901;28;20475;-69
2022/10/04 03:48:42;;;;;;;0.20;0.20;;;;;;;12.41;83.16;102148.56;2108685;28;20048;-69
2022/10/04 03:49:47;;;;;;;0.30;0.30;;;;;;;12.39;83.10;102150.00;2109716;28;20048;-69
2022/10/04 03:50:53;;;;;;;0.22;0.22;;;;;;;12.37;82.75;102147.59;2107083;28;20052;-69
2022/10/04 03:51:57;;;;;;;0.30;0.30;;;;;;;12.35;83.26;102149.84;2107682;28;20052;-69
2022/10/04 03:53:04;;;;;;;0.30;0.30;;;;;;;12.34;83.26;102150.97;2112819;28;20101;-69
2022/10/04 03:54:11;;;;;;;0.30;0.30;;;;;;;12.31;83.15;102143.47;2111518;28;20698;-69
2022/10/04 03:55:15;;;;;;;0.30;0.30;;;;;;;12.30;83.17;102154.63;2110420;28;20051;-69
2022/10/04 03:56:24;;;;;;;0.30;0.30;;;;;;;12.26;83.31;102145.56;2109785;28;20044;-69
2022/10/04 03:57:27;;;;;;;0.30;0.30;;;;;;;12.22;83.46;102148.09;2104959;28;20125;-69
2022/10/04 03:58:31;;;;;;;0.30;0.30;;;;;;;12.21;83.62;102143.78;2109066;28;20058;-68
2022/10/04 03:59:34;;;;;;;0.28;0.28;;;;;;;12.17;83.42;102142.84;2104914;28;20781;-69
2022/10/04 04:00:43;;;;;;;0.30;0.30;;;;;;;12.16;83.83;102143.97;2112097;28;20673;-67
2022/10/04 04:01:52;;;;;;;0.35;0.35;;;;;;;12.12;83.82;102140.28;2108146;28;20109;-68
2022/10/04 04:02:58;;;;;;;0.30;0.30;;;;;;;12.11;84.00;102141.41;2104854;28;20086;-68
2022/10/04 04:04:10;;;;;;;0.50;0.50;;;;;;;12.07;84.19;102138.56;2111852;28;20044;-68
2022/10/04 04:05:19;;;;;;;0.40;0.40;;;;;;;12.05;83.96;102132.66;2111386;28;20063;-69
2022/10/04 04:06:24;;;;;;;0.40;0.40;;;;;;;12.04;84.10;102132.97;2105022;28;20052;-68
2022/10/04 04:07:34;;;;;;;0.30;0.30;;;;;;;12.02;84.44;102129.78;2110657;28;20052;-68
2022/10/04 04:08:41;;;;;;;0.32;0.32;;;;;;;11.98;84.42;102126.94;2102205;28;20609;-68
2022/10/04 04:09:47;;;;;;;0.35;0.35;;;;;;;11.98;84.31;102128.84;2096349;28;20766;-68
2022/10/04 04:10:53;;;;;;;0.35;0.35;;;;;;;11.94;84.56;102138.69;2099102;28;20052;-68
2022/10/04 04:12:00;;;;;;;0.40;0.40;;;;;;;11.92;84.36;102130.88;2106236;28;20485;-68
2022/10/04 04:13:22;;;;;;;0.40;0.40;;;;;;;11.83;85.09;102121.97;2105503;28;20171;-68
2022/10/04 04:14:27;;;;;;;0.40;0.40;;;;;;;11.86;85.03;102121.34;2104442;28;20048;-68
2022/10/04 04:15:31;;;;;;;0.40;0.40;;;;;;;11.84;84.89;102131.69;2104095;28;20064;-68
2022/10/04 04:16:36;;;;;;;0.40;0.40;;;;;;;11.83;85.04;102132.00;2104524;28;20048;-69
2022/10/04 04:17:40;;;;;;;0.40;0.40;;;;;;;11.81;85.23;102131.53;2110925;28;20051;-68
2022/10/04 04:18:45;;;;;;;0.30;0.30;;;;;;;11.80;84.63;102136.16;2096932;28;20666;-68
2022/10/04 04:19:47;;;;;;;0.30;0.30;;;;;;;11.80;85.12;102132.63;2111636;28;20052;-69
2022/10/04 04:20:51;;;;;;;0.40;0.40;;;;;;;11.80;85.25;102138.03;2104970;28;20060;-68
2022/10/04 04:21:55;;;;;;;0.40;0.40;;;;;;;11.77;85.11;102138.69;2104840;28;20681;-68
2022/10/04 04:23:02;;;;;;;0.30;0.30;;;;;;;11.75;85.06;102138.19;2105764;28;20051;-68
2022/10/04 04:24:13;;;;;;;0.30;0.30;;;;;;;11.76;85.25;102131.69;2110070;28;20487;-68
2022/10/04 04:25:16;;;;;;;0.40;0.40;;;;;;;11.74;85.40;102129.28;2108623;28;20138;-68
2022/10/04 04:26:26;;;;;;;0.30;0.30;;;;;;;11.72;85.52;102125.31;2107671;28;20059;-69
2022/10/04 04:27:32;;;;;;;;;;;;;;;11.56;85.81;102118.75;2105160;28;20431;-68
2022/10/04 04:28:42;;;;;;;0.30;0.30;;;;;;;11.60;85.66;102120.50;2104010;28;19924;-69
2022/10/04 04:29:49;;;;;;;0.30;0.30;;;;;;;11.63;85.45;102122.59;2108417;28;20059;-68
2022/10/04 04:30:57;;;;;;;0.40;0.40;;;;;;;11.65;85.79;102111.47;2108272;28;20055;-69
2022/10/04 04:32:02;;;;;;;0.40;0.40;;;;;;;11.67;85.67;102120.06;2104217;28;20055;-68
2022/10/04 04:33:14;;;;;;;0.35;0.35;;;;;;;11.66;85.42;102121.16;2107565;28;20495;-68
2022/10/04 04:34:26;;;;;;;0.30;0.30;;;;;;;11.64;85.55;102107.94;2105617;28;20105;-68
2022/10/04 04:35:31;;;;;;;0.40;0.40;;;;;;;11.66;85.58;102115.75;2104289;28;20071;-68
2022/10/04 04:36:40;;;;;;;0.40;0.40;;;;;;;11.67;85.35;102114.66;2111321;28;20063;-68
2022/10/04 04:37:42;;;;;;;0.40;0.40;;;;;;;11.66;85.64;102107.63;2111201;28;20050;-68
2022/10/04 04:40:18;;;;;;;0.40;0.40;;;;;;;11.64;85.71;102107.16;2106921;28;20059;-69
2022/10/04 04:41:21;;;;;;;0.40;0.40;;;;;;;11.64;85.63;102113.38;2110414;28;20474;-69
2022/10/04 04:42:33;;;;;;;0.40;0.40;;;;;;;11.64;85.45;102112.56;2111631;28;20055;-69
2022/10/04 04:43:35;;;;;;;0.40;0.40;;;;;;;11.64;85.54;102101.72;2112036;28;20070;-69
2022/10/04 04:44:40;;;;;;;0.30;0.30;;;;;;;11.64;85.67;102107.94;2105124;28;20055;-69
2022/10/04 04:45:42;;;;;;;0.40;0.40;;;;;;;11.62;86.00;102101.25;2104435;28;20052;-69
2022/10/04 04:46:45;;;;;;;0.40;0.40;;;;;;;11.64;85.68;102101.72;2105347;28;20105;-69
2022/10/04 04:47:50;;;;;;;0.40;0.40;;;;;;;11.65;85.95;102108.75;2105663;28;20953;-68
2022/10/04 04:49:00;;;;;;;0.40;0.40;;;;;;;11.64;85.56;102110.66;2105208;28;20104;-69
2022/10/04 04:50:07;;;;;;;0.40;0.40;;;;;;;11.64;86.09;102107.94;2104744;28;20052;-69
2022/10/04 04:51:18;;;;;;;0.40;0.40;;;;;;;11.63;85.59;102113.69;2112374;28;20043;-68
2022/10/04 04:52:22;;;;;;;;;;;;;;;11.48;86.28;102112.19;2105431;28;20519;-68
2022/10/04 04:53:28;;;;;;;0.50;0.50;;;;;;;11.52;85.89;102109.66;2104643;28;20398;-68
2022/10/04 04:54:31;;;;;;;0.50;0.50;;;;;;;11.57;85.79;102117.63;2104186;28;20060;-68
2022/10/04 04:55:39;;;;;;;0.40;0.40;;;;;;;11.57;86.19;102107.59;2105025;28;20129;-68
2022/10/04 04:57:02;;;;;;;0.40;0.40;;;;;;;11.54;86.07;102102.03;2105472;28;20139;-68
2022/10/04 04:58:07;;;;;;;0.40;0.40;;;;;;;11.54;85.93;102100.09;2105347;28;20052;-68
2022/10/04 04:59:12;;;;;;;0.40;0.40;;;;;;;11.54;85.95;102102.03;2095957;28;20044;-68
2022/10/04 05:00:17;;;;;;;0.40;0.40;;;;;;;11.55;85.26;102106.31;2102482;28;20388;-68
2022/10/04 05:01:25;;;;;;;0.40;0.40;;;;;;;11.54;86.05;102107.44;2108305;28;20048;-69
2022/10/04 05:02:36;;;;;;;0.50;0.50;;;;;;;11.52;86.05;102105.06;2104263;28;20071;-69
2022/10/04 05:03:39;;;;;;;0.30;0.30;;;;;;;11.52;85.87;102098.84;2101765;28;20109;-69
2022/10/04 05:04:41;;;;;;;0.35;0.35;;;;;;;11.53;85.84;102106.63;2110969;28;20052;-69
2022/10/04 05:05:46;;;;;;;0.40;0.40;;;;;;;11.53;85.98;102101.22;2105050;28;20112;-69
2022/10/04 05:06:59;;;;;;;0.45;0.45;;;;;;;11.49;86.36;102102.16;2110731;28;20052;-69
2022/10/04 05:08:21;;;;;;;0.50;0.50;;;;;;;11.44;86.14;102102.31;2111212;28;20056;-68
2022/10/04 05:09:25;;;;;;;0.40;0.40;;;;;;;11.48;86.02;102103.28;2108395;28;20645;-68
2022/10/04 05:10:30;;;;;;;0.40;0.40;;;;;;;11.50;85.83;102111.88;2113552;28;20044;-68
2022/10/04 05:11:36;;;;;;;0.40;0.40;;;;;;;11.52;85.75;102109.66;2104546;28;20059;-69
2022/10/04 05:12:38;;;;;;;0.50;0.50;;;;;;;11.51;85.98;102113.47;2102723;28;20060;-68
2022/10/04 05:13:47;;;;;;;0.40;0.40;;;;;;;11.50;86.12;102103.75;2097568;28;20068;-69
2022/10/04 05:14:51;;;;;;;0.40;0.40;;;;;;;11.48;85.90;102095.97;2112451;28;20058;-69
2022/10/04 05:15:58;;;;;;;0.40;0.40;;;;;;;11.50;85.86;102107.25;2110024;28;20500;-68
2022/10/04 05:17:00;;;;;;;0.40;0.40;;;;;;;11.49;85.78;102104.88;2104975;28;20059;-69